sensor_id;sensor_type;location;lat;lon;timestamp;P1;durP1;ratioP1;P2;durP2;ratioP2
61640;SDS011;62201;49.966;8.342;2023-03-04T00:01:46;86.23;;;36.13;;
61640;SDS011;62201;49.966;8.342;2023-03-04T00:04:11;86.10;;;35.07;;
61640;SDS011;62201;49.966;8.342;2023-03-04T00:06:37;85.17;;;34.13;;
61640;SDS011;62201;49.966;8.342;2023-03-04T00:09:02;84.17;;;35.03;;
61640;SDS011;62201;49.966;8.342;2023-03-04T00:11:29;87.53;;;34.87;;
61640;SDS011;62201;49.966;8.342;2023-03-04T00:13:54;83.93;;;34.60;;
61640;SDS011;62201;49.966;8.342;2023-03-04T00:16:20;85.53;;;34.40;;
61640;SDS011;62201;49.966;8.342;2023-03-04T00:18:46;82.80;;;35.67;;
61640;SDS011;62201;49.966;8.342;2023-03-04T00:21:11;83.17;;;34.93;;
61640;SDS011;62201;49.966;8.342;2023-03-04T00:23:37;83.30;;;35.07;;
61640;SDS011;62201;49.966;8.342;2023-03-04T00:26:02;87.17;;;35.77;;
61640;SDS011;62201;49.966;8.342;2023-03-04T00:28:28;86.23;;;34.80;;
61640;SDS011;62201;49.966;8.342;2023-03-04T00:30:53;83.57;;;34.83;;
61640;SDS011;62201;49.966;8.342;2023-03-04T00:33:18;87.00;;;35.07;;
61640;SDS011;62201;49.966;8.342;2023-03-04T00:35:44;82.83;;;34.17;;
61640;SDS011;62201;49.966;8.342;2023-03-04T00:38:10;88.30;;;36.00;;
61640;SDS011;62201;49.966;8.342;2023-03-04T00:40:35;92.73;;;36.60;;
61640;SDS011;62201;49.966;8.342;2023-03-04T00:43:01;85.87;;;35.30;;
61640;SDS011;62201;49.966;8.342;2023-03-04T00:45:26;94.20;;;36.13;;
61640;SDS011;62201;49.966;8.342;2023-03-04T00:47:52;88.93;;;35.10;;
61640;SDS011;62201;49.966;8.342;2023-03-04T00:50:17;82.93;;;34.07;;
61640;SDS011;62201;49.966;8.342;2023-03-04T00:52:42;89.73;;;35.47;;
61640;SDS011;62201;49.966;8.342;2023-03-04T00:55:08;86.83;;;34.90;;
61640;SDS011;62201;49.966;8.342;2023-03-04T00:57:34;90.00;;;35.83;;
61640;SDS011;62201;49.966;8.342;2023-03-04T00:59:59;87.77;;;35.73;;
61640;SDS011;62201;49.966;8.342;2023-03-04T01:02:25;89.73;;;35.47;;
61640;SDS011;62201;49.966;8.342;2023-03-04T01:04:50;95.30;;;37.23;;
61640;SDS011;62201;49.966;8.342;2023-03-04T01:07:16;93.30;;;36.40;;
61640;SDS011;62201;49.966;8.342;2023-03-04T01:09:41;93.30;;;37.53;;
61640;SDS011;62201;49.966;8.342;2023-03-04T01:12:07;93.23;;;35.90;;
61640;SDS011;62201;49.966;8.342;2023-03-04T01:14:32;96.47;;;37.57;;
61640;SDS011;62201;49.966;8.342;2023-03-04T01:16:57;96.07;;;36.77;;
61640;SDS011;62201;49.966;8.342;2023-03-04T01:19:23;94.80;;;35.43;;
61640;SDS011;62201;49.966;8.342;2023-03-04T01:21:48;104.70;;;38.00;;
61640;SDS011;62201;49.966;8.342;2023-03-04T01:24:14;95.33;;;36.63;;
61640;SDS011;62201;49.966;8.342;2023-03-04T01:26:39;104.70;;;39.07;;
61640;SDS011;62201;49.966;8.342;2023-03-04T01:29:05;110.83;;;38.23;;
61640;SDS011;62201;49.966;8.342;2023-03-04T01:31:30;97.80;;;37.00;;
61640;SDS011;62201;49.966;8.342;2023-03-04T01:33:56;101.67;;;38.73;;
61640;SDS011;62201;49.966;8.342;2023-03-04T01:36:21;107.97;;;38.57;;
61640;SDS011;62201;49.966;8.342;2023-03-04T01:38:46;119.70;;;40.87;;
61640;SDS011;62201;49.966;8.342;2023-03-04T01:41:12;113.30;;;40.13;;
61640;SDS011;62201;49.966;8.342;2023-03-04T01:43:39;116.93;;;40.27;;
61640;SDS011;62201;49.966;8.342;2023-03-04T01:46:05;121.83;;;42.13;;
61640;SDS011;62201;49.966;8.342;2023-03-04T01:48:32;116.07;;;40.07;;
61640;SDS011;62201;49.966;8.342;2023-03-04T01:51:01;108.27;;;38.83;;
61640;SDS011;62201;49.966;8.342;2023-03-04T01:53:28;121.13;;;40.30;;
61640;SDS011;62201;49.966;8.342;2023-03-04T01:56:28;105.03;;;38.93;;
61640;SDS011;62201;49.966;8.342;2023-03-04T02:01:43;112.37;;;38.33;;
61640;SDS011;62201;49.966;8.342;2023-03-04T02:04:17;115.27;;;39.50;;
61640;SDS011;62201;49.966;8.342;2023-03-04T02:06:46;114.10;;;39.83;;
61640;SDS011;62201;49.966;8.342;2023-03-04T02:09:13;119.77;;;42.37;;
61640;SDS011;62201;49.966;8.342;2023-03-04T02:11:39;120.03;;;41.77;;
61640;SDS011;62201;49.966;8.342;2023-03-04T02:14:05;144.60;;;44.87;;
61640;SDS011;62201;49.966;8.342;2023-03-04T02:16:31;139.87;;;45.00;;
61640;SDS011;62201;49.966;8.342;2023-03-04T02:18:57;134.27;;;43.70;;
61640;SDS011;62201;49.966;8.342;2023-03-04T02:21:24;129.63;;;44.27;;
61640;SDS011;62201;49.966;8.342;2023-03-04T02:26:29;137.07;;;42.53;;
61640;SDS011;62201;49.966;8.342;2023-03-04T02:28:57;143.20;;;44.37;;
61640;SDS011;62201;49.966;8.342;2023-03-04T02:31:30;131.70;;;41.90;;
61640;SDS011;62201;49.966;8.342;2023-03-04T02:33:57;145.60;;;44.00;;
61640;SDS011;62201;49.966;8.342;2023-03-04T02:36:25;129.43;;;42.30;;
61640;SDS011;62201;49.966;8.342;2023-03-04T02:38:51;147.87;;;45.10;;
61640;SDS011;62201;49.966;8.342;2023-03-04T02:41:19;133.70;;;40.13;;
61640;SDS011;62201;49.966;8.342;2023-03-04T02:43:50;135.43;;;42.50;;
61640;SDS011;62201;49.966;8.342;2023-03-04T02:46:17;133.07;;;41.57;;
61640;SDS011;62201;49.966;8.342;2023-03-04T02:48:43;139.80;;;43.00;;
61640;SDS011;62201;49.966;8.342;2023-03-04T02:51:09;138.33;;;42.07;;
61640;SDS011;62201;49.966;8.342;2023-03-04T02:53:34;145.70;;;42.97;;
61640;SDS011;62201;49.966;8.342;2023-03-04T02:56:00;145.03;;;42.80;;
61640;SDS011;62201;49.966;8.342;2023-03-04T02:58:25;129.20;;;42.70;;
61640;SDS011;62201;49.966;8.342;2023-03-04T03:00:51;124.83;;;40.70;;
61640;SDS011;62201;49.966;8.342;2023-03-04T03:03:16;127.10;;;40.27;;
61640;SDS011;62201;49.966;8.342;2023-03-04T03:05:42;146.00;;;42.47;;
61640;SDS011;62201;49.966;8.342;2023-03-04T03:08:07;146.20;;;42.43;;
61640;SDS011;62201;49.966;8.342;2023-03-04T03:10:33;132.80;;;41.07;;
61640;SDS011;62201;49.966;8.342;2023-03-04T03:12:58;134.80;;;41.43;;
61640;SDS011;62201;49.966;8.342;2023-03-04T03:15:24;131.63;;;40.80;;
61640;SDS011;62201;49.966;8.342;2023-03-04T03:17:50;133.97;;;40.60;;
61640;SDS011;62201;49.966;8.342;2023-03-04T03:20:16;157.37;;;43.07;;
61640;SDS011;62201;49.966;8.342;2023-03-04T03:22:41;149.97;;;43.47;;
61640;SDS011;62201;49.966;8.342;2023-03-04T03:25:07;134.43;;;41.10;;
61640;SDS011;62201;49.966;8.342;2023-03-04T03:27:34;149.30;;;42.37;;
61640;SDS011;62201;49.966;8.342;2023-03-04T03:29:59;131.47;;;41.10;;
61640;SDS011;62201;49.966;8.342;2023-03-04T03:32:25;123.53;;;39.03;;
61640;SDS011;62201;49.966;8.342;2023-03-04T03:34:50;141.53;;;41.63;;
61640;SDS011;62201;49.966;8.342;2023-03-04T03:37:16;137.93;;;41.40;;
61640;SDS011;62201;49.966;8.342;2023-03-04T03:39:42;133.53;;;42.07;;
61640;SDS011;62201;49.966;8.342;2023-03-04T03:42:07;138.43;;;41.53;;
61640;SDS011;62201;49.966;8.342;2023-03-04T03:44:33;132.30;;;41.53;;
61640;SDS011;62201;49.966;8.342;2023-03-04T03:46:58;141.47;;;43.37;;
61640;SDS011;62201;49.966;8.342;2023-03-04T03:49:23;118.40;;;40.40;;
61640;SDS011;62201;49.966;8.342;2023-03-04T03:51:49;127.63;;;40.77;;
61640;SDS011;62201;49.966;8.342;2023-03-04T03:54:14;121.13;;;41.80;;
61640;SDS011;62201;49.966;8.342;2023-03-04T03:56:40;114.67;;;39.60;;
61640;SDS011;62201;49.966;8.342;2023-03-04T03:59:05;101.53;;;38.23;;
61640;SDS011;62201;49.966;8.342;2023-03-04T04:01:31;112.83;;;38.70;;
61640;SDS011;62201;49.966;8.342;2023-03-04T04:03:57;112.73;;;39.73;;
61640;SDS011;62201;49.966;8.342;2023-03-04T04:06:23;107.40;;;40.30;;
61640;SDS011;62201;49.966;8.342;2023-03-04T04:08:49;127.27;;;41.70;;
61640;SDS011;62201;49.966;8.342;2023-03-04T04:11:15;112.97;;;41.10;;
61640;SDS011;62201;49.966;8.342;2023-03-04T04:13:40;118.90;;;41.13;;
61640;SDS011;62201;49.966;8.342;2023-03-04T04:16:06;111.73;;;39.83;;
61640;SDS011;62201;49.966;8.342;2023-03-04T04:18:32;112.10;;;38.87;;
61640;SDS011;62201;49.966;8.342;2023-03-04T04:20:57;101.40;;;37.77;;
61640;SDS011;62201;49.966;8.342;2023-03-04T04:23:22;99.23;;;37.93;;
61640;SDS011;62201;49.966;8.342;2023-03-04T04:25:48;104.67;;;38.83;;
61640;SDS011;62201;49.966;8.342;2023-03-04T04:28:13;102.83;;;39.00;;
61640;SDS011;62201;49.966;8.342;2023-03-04T04:30:39;108.47;;;39.93;;
61640;SDS011;62201;49.966;8.342;2023-03-04T04:33:04;98.30;;;37.53;;
61640;SDS011;62201;49.966;8.342;2023-03-04T04:35:31;100.87;;;37.83;;
61640;SDS011;62201;49.966;8.342;2023-03-04T04:37:57;98.97;;;37.80;;
61640;SDS011;62201;49.966;8.342;2023-03-04T04:40:23;97.73;;;37.90;;
61640;SDS011;62201;49.966;8.342;2023-03-04T04:42:48;96.53;;;36.07;;
61640;SDS011;62201;49.966;8.342;2023-03-04T04:45:13;89.17;;;35.70;;
61640;SDS011;62201;49.966;8.342;2023-03-04T04:47:39;91.97;;;36.83;;
61640;SDS011;62201;49.966;8.342;2023-03-04T04:50:05;96.33;;;38.23;;
61640;SDS011;62201;49.966;8.342;2023-03-04T04:52:30;91.63;;;37.23;;
61640;SDS011;62201;49.966;8.342;2023-03-04T04:54:56;91.10;;;37.63;;
61640;SDS011;62201;49.966;8.342;2023-03-04T04:57:21;90.50;;;36.27;;
61640;SDS011;62201;49.966;8.342;2023-03-04T04:59:47;87.40;;;36.07;;
61640;SDS011;62201;49.966;8.342;2023-03-04T05:02:12;86.93;;;37.13;;
61640;SDS011;62201;49.966;8.342;2023-03-04T05:04:38;97.10;;;37.57;;
61640;SDS011;62201;49.966;8.342;2023-03-04T05:07:03;88.40;;;36.30;;
61640;SDS011;62201;49.966;8.342;2023-03-04T05:09:28;89.30;;;37.70;;
61640;SDS011;62201;49.966;8.342;2023-03-04T05:11:54;90.93;;;37.70;;
61640;SDS011;62201;49.966;8.342;2023-03-04T05:14:19;88.43;;;36.77;;
61640;SDS011;62201;49.966;8.342;2023-03-04T05:16:45;88.70;;;37.50;;
61640;SDS011;62201;49.966;8.342;2023-03-04T05:19:10;84.80;;;35.80;;
61640;SDS011;62201;49.966;8.342;2023-03-04T05:21:35;86.53;;;36.67;;
61640;SDS011;62201;49.966;8.342;2023-03-04T05:24:01;88.43;;;36.50;;
61640;SDS011;62201;49.966;8.342;2023-03-04T05:26:26;84.10;;;36.63;;
61640;SDS011;62201;49.966;8.342;2023-03-04T05:28:51;79.43;;;34.97;;
61640;SDS011;62201;49.966;8.342;2023-03-04T05:31:17;83.43;;;35.33;;
61640;SDS011;62201;49.966;8.342;2023-03-04T05:33:42;76.00;;;34.63;;
61640;SDS011;62201;49.966;8.342;2023-03-04T05:36:08;80.00;;;35.53;;
61640;SDS011;62201;49.966;8.342;2023-03-04T05:38:34;79.40;;;36.17;;
61640;SDS011;62201;49.966;8.342;2023-03-04T05:41:01;79.80;;;35.53;;
61640;SDS011;62201;49.966;8.342;2023-03-04T05:43:30;78.27;;;35.87;;
61640;SDS011;62201;49.966;8.342;2023-03-04T05:45:58;78.20;;;36.50;;
61640;SDS011;62201;49.966;8.342;2023-03-04T05:48:23;86.07;;;39.13;;
61640;SDS011;62201;49.966;8.342;2023-03-04T05:50:53;79.27;;;35.80;;
61640;SDS011;62201;49.966;8.342;2023-03-04T05:53:22;81.43;;;36.07;;
61640;SDS011;62201;49.966;8.342;2023-03-04T05:55:48;79.83;;;35.97;;
61640;SDS011;62201;49.966;8.342;2023-03-04T05:58:14;77.07;;;36.73;;
61640;SDS011;62201;49.966;8.342;2023-03-04T06:00:41;74.43;;;33.97;;
61640;SDS011;62201;49.966;8.342;2023-03-04T06:03:06;74.67;;;35.47;;
61640;SDS011;62201;49.966;8.342;2023-03-04T06:05:31;71.37;;;33.97;;
61640;SDS011;62201;49.966;8.342;2023-03-04T06:07:57;67.73;;;33.27;;
61640;SDS011;62201;49.966;8.342;2023-03-04T06:10:22;72.07;;;32.70;;
61640;SDS011;62201;49.966;8.342;2023-03-04T06:12:48;78.23;;;34.40;;
61640;SDS011;62201;49.966;8.342;2023-03-04T06:15:13;68.20;;;32.27;;
61640;SDS011;62201;49.966;8.342;2023-03-04T06:17:39;73.80;;;33.70;;
61640;SDS011;62201;49.966;8.342;2023-03-04T06:20:05;70.40;;;33.17;;
61640;SDS011;62201;49.966;8.342;2023-03-04T06:22:32;69.83;;;32.97;;
61640;SDS011;62201;49.966;8.342;2023-03-04T06:24:58;71.13;;;33.87;;
61640;SDS011;62201;49.966;8.342;2023-03-04T06:27:24;75.13;;;32.00;;
61640;SDS011;62201;49.966;8.342;2023-03-04T06:29:49;70.70;;;33.20;;
61640;SDS011;62201;49.966;8.342;2023-03-04T06:32:15;70.37;;;33.53;;
61640;SDS011;62201;49.966;8.342;2023-03-04T06:34:40;69.63;;;31.97;;
61640;SDS011;62201;49.966;8.342;2023-03-04T06:37:05;73.50;;;33.87;;
61640;SDS011;62201;49.966;8.342;2023-03-04T06:39:31;70.57;;;32.80;;
61640;SDS011;62201;49.966;8.342;2023-03-04T06:41:56;73.63;;;33.10;;
61640;SDS011;62201;49.966;8.342;2023-03-04T06:44:22;70.67;;;32.37;;
61640;SDS011;62201;49.966;8.342;2023-03-04T06:46:48;67.70;;;32.40;;
61640;SDS011;62201;49.966;8.342;2023-03-04T06:49:13;71.70;;;34.70;;
61640;SDS011;62201;49.966;8.342;2023-03-04T06:51:39;80.00;;;40.57;;
61640;SDS011;62201;49.966;8.342;2023-03-04T06:54:04;78.43;;;37.13;;
61640;SDS011;62201;49.966;8.342;2023-03-04T06:56:30;64.30;;;31.80;;
61640;SDS011;62201;49.966;8.342;2023-03-04T06:58:55;71.53;;;35.17;;
61640;SDS011;62201;49.966;8.342;2023-03-04T07:01:24;71.83;;;37.23;;
61640;SDS011;62201;49.966;8.342;2023-03-04T07:03:51;73.97;;;35.97;;
61640;SDS011;62201;49.966;8.342;2023-03-04T07:06:18;69.43;;;33.60;;
61640;SDS011;62201;49.966;8.342;2023-03-04T07:08:46;65.40;;;33.20;;
61640;SDS011;62201;49.966;8.342;2023-03-04T07:11:11;68.00;;;34.47;;
61640;SDS011;62201;49.966;8.342;2023-03-04T07:13:37;66.57;;;32.37;;
61640;SDS011;62201;49.966;8.342;2023-03-04T07:16:03;66.20;;;31.43;;
61640;SDS011;62201;49.966;8.342;2023-03-04T07:18:30;80.90;;;32.47;;
61640;SDS011;62201;49.966;8.342;2023-03-04T07:20:56;67.43;;;32.93;;
61640;SDS011;62201;49.966;8.342;2023-03-04T07:23:21;63.87;;;32.33;;
61640;SDS011;62201;49.966;8.342;2023-03-04T07:25:47;66.27;;;32.83;;
61640;SDS011;62201;49.966;8.342;2023-03-04T07:28:14;71.20;;;32.83;;
61640;SDS011;62201;49.966;8.342;2023-03-04T07:30:40;65.60;;;31.60;;
61640;SDS011;62201;49.966;8.342;2023-03-04T07:33:05;60.20;;;31.23;;
61640;SDS011;62201;49.966;8.342;2023-03-04T07:35:30;64.70;;;31.33;;
61640;SDS011;62201;49.966;8.342;2023-03-04T07:37:56;67.63;;;31.80;;
61640;SDS011;62201;49.966;8.342;2023-03-04T07:40:21;61.87;;;31.87;;
61640;SDS011;62201;49.966;8.342;2023-03-04T07:42:50;68.10;;;31.27;;
61640;SDS011;62201;49.966;8.342;2023-03-04T07:45:17;61.80;;;31.63;;
61640;SDS011;62201;49.966;8.342;2023-03-04T07:47:42;64.73;;;30.67;;
61640;SDS011;62201;49.966;8.342;2023-03-04T07:50:08;59.23;;;30.87;;
61640;SDS011;62201;49.966;8.342;2023-03-04T07:52:41;58.63;;;29.27;;
61640;SDS011;62201;49.966;8.342;2023-03-04T07:55:09;55.60;;;30.13;;
61640;SDS011;62201;49.966;8.342;2023-03-04T07:57:37;62.23;;;30.47;;
61640;SDS011;62201;49.966;8.342;2023-03-04T08:00:03;58.47;;;29.77;;
61640;SDS011;62201;49.966;8.342;2023-03-04T08:02:29;63.50;;;31.53;;
61640;SDS011;62201;49.966;8.342;2023-03-04T08:04:55;63.50;;;31.60;;
61640;SDS011;62201;49.966;8.342;2023-03-04T08:07:20;66.00;;;30.53;;
61640;SDS011;62201;49.966;8.342;2023-03-04T08:09:46;62.23;;;31.17;;
61640;SDS011;62201;49.966;8.342;2023-03-04T08:12:12;58.60;;;29.17;;
61640;SDS011;62201;49.966;8.342;2023-03-04T08:14:37;64.10;;;30.63;;
61640;SDS011;62201;49.966;8.342;2023-03-04T08:17:03;61.30;;;30.53;;
61640;SDS011;62201;49.966;8.342;2023-03-04T08:19:28;55.27;;;29.37;;
61640;SDS011;62201;49.966;8.342;2023-03-04T08:21:54;53.10;;;27.73;;
61640;SDS011;62201;49.966;8.342;2023-03-04T08:24:19;57.57;;;27.70;;
61640;SDS011;62201;49.966;8.342;2023-03-04T08:26:46;50.47;;;27.40;;
61640;SDS011;62201;49.966;8.342;2023-03-04T08:29:15;48.07;;;25.23;;
61640;SDS011;62201;49.966;8.342;2023-03-04T08:31:44;47.57;;;23.17;;
61640;SDS011;62201;49.966;8.342;2023-03-04T08:34:11;47.37;;;22.80;;
61640;SDS011;62201;49.966;8.342;2023-03-04T08:36:37;48.17;;;22.87;;
61640;SDS011;62201;49.966;8.342;2023-03-04T08:39:03;45.57;;;22.83;;
61640;SDS011;62201;49.966;8.342;2023-03-04T08:41:29;42.67;;;21.83;;
61640;SDS011;62201;49.966;8.342;2023-03-04T08:43:54;40.67;;;17.40;;
61640;SDS011;62201;49.966;8.342;2023-03-04T08:46:20;36.83;;;16.87;;
61640;SDS011;62201;49.966;8.342;2023-03-04T08:48:45;38.57;;;18.83;;
61640;SDS011;62201;49.966;8.342;2023-03-04T08:51:11;38.40;;;18.53;;
61640;SDS011;62201;49.966;8.342;2023-03-04T08:53:38;31.17;;;12.27;;
61640;SDS011;62201;49.966;8.342;2023-03-04T08:56:04;33.10;;;13.83;;
61640;SDS011;62201;49.966;8.342;2023-03-04T08:58:30;36.63;;;13.33;;
61640;SDS011;62201;49.966;8.342;2023-03-04T09:00:57;29.67;;;12.37;;
61640;SDS011;62201;49.966;8.342;2023-03-04T09:03:23;31.20;;;12.10;;
61640;SDS011;62201;49.966;8.342;2023-03-04T09:05:48;33.60;;;10.60;;
61640;SDS011;62201;49.966;8.342;2023-03-04T09:08:15;28.53;;;10.87;;
61640;SDS011;62201;49.966;8.342;2023-03-04T09:10:41;29.43;;;11.27;;
61640;SDS011;62201;49.966;8.342;2023-03-04T09:13:07;27.20;;;10.60;;
61640;SDS011;62201;49.966;8.342;2023-03-04T09:15:35;28.77;;;10.37;;
61640;SDS011;62201;49.966;8.342;2023-03-04T09:18:02;29.17;;;10.40;;
61640;SDS011;62201;49.966;8.342;2023-03-04T09:20:29;26.13;;;9.97;;
61640;SDS011;62201;49.966;8.342;2023-03-04T09:22:56;29.93;;;10.23;;
61640;SDS011;62201;49.966;8.342;2023-03-04T09:25:22;29.77;;;9.90;;
61640;SDS011;62201;49.966;8.342;2023-03-04T09:27:47;26.63;;;10.30;;
61640;SDS011;62201;49.966;8.342;2023-03-04T09:30:13;28.73;;;9.93;;
61640;SDS011;62201;49.966;8.342;2023-03-04T09:32:38;28.37;;;8.97;;
61640;SDS011;62201;49.966;8.342;2023-03-04T09:35:05;30.30;;;9.63;;
61640;SDS011;62201;49.966;8.342;2023-03-04T09:37:31;27.67;;;9.30;;
61640;SDS011;62201;49.966;8.342;2023-03-04T09:39:57;26.43;;;9.20;;
61640;SDS011;62201;49.966;8.342;2023-03-04T09:42:27;26.43;;;7.83;;
61640;SDS011;62201;49.966;8.342;2023-03-04T09:44:57;27.27;;;8.63;;
61640;SDS011;62201;49.966;8.342;2023-03-04T09:47:23;23.53;;;8.47;;
61640;SDS011;62201;49.966;8.342;2023-03-04T09:49:58;21.53;;;8.23;;
61640;SDS011;62201;49.966;8.342;2023-03-04T09:52:33;27.93;;;9.13;;
61640;SDS011;62201;49.966;8.342;2023-03-04T09:55:22;24.00;;;7.50;;
61640;SDS011;62201;49.966;8.342;2023-03-04T10:00:30;23.63;;;7.70;;
61640;SDS011;62201;49.966;8.342;2023-03-04T10:03:04;27.10;;;8.20;;
61640;SDS011;62201;49.966;8.342;2023-03-04T10:05:35;24.63;;;7.67;;
61640;SDS011;62201;49.966;8.342;2023-03-04T10:08:23;25.50;;;7.43;;
61640;SDS011;62201;49.966;8.342;2023-03-04T10:10:55;21.30;;;7.03;;
61640;SDS011;62201;49.966;8.342;2023-03-04T10:13:34;26.07;;;7.37;;
61640;SDS011;62201;49.966;8.342;2023-03-04T10:16:22;28.33;;;7.60;;
61640;SDS011;62201;49.966;8.342;2023-03-04T10:18:52;22.63;;;7.17;;
61640;SDS011;62201;49.966;8.342;2023-03-04T10:21:25;21.92;;;7.13;;
61640;SDS011;62201;49.966;8.342;2023-03-04T10:23:56;23.33;;;7.20;;
61640;SDS011;62201;49.966;8.342;2023-03-04T10:26:24;24.23;;;7.30;;
61640;SDS011;62201;49.966;8.342;2023-03-04T10:28:55;22.17;;;7.13;;
61640;SDS011;62201;49.966;8.342;2023-03-04T10:31:34;28.27;;;7.60;;
61640;SDS011;62201;49.966;8.342;2023-03-04T10:34:01;23.73;;;7.20;;
61640;SDS011;62201;49.966;8.342;2023-03-04T10:39:02;21.40;;;7.63;;
61640;SDS011;62201;49.966;8.342;2023-03-04T10:41:32;24.60;;;7.60;;
61640;SDS011;62201;49.966;8.342;2023-03-04T10:46:23;22.37;;;6.77;;
61640;SDS011;62201;49.966;8.342;2023-03-04T10:48:49;24.63;;;7.10;;
61640;SDS011;62201;49.966;8.342;2023-03-04T10:51:18;21.00;;;7.07;;
61640;SDS011;62201;49.966;8.342;2023-03-04T10:54:06;28.33;;;7.93;;
61640;SDS011;62201;49.966;8.342;2023-03-04T10:56:56;19.10;;;6.13;;
61640;SDS011;62201;49.966;8.342;2023-03-04T10:59:39;16.43;;;6.90;;
61640;SDS011;62201;49.966;8.342;2023-03-04T11:02:29;27.40;;;7.50;;
61640;SDS011;62201;49.966;8.342;2023-03-04T11:07:54;18.13;;;5.80;;
61640;SDS011;62201;49.966;8.342;2023-03-04T11:10:29;21.27;;;7.13;;
61640;SDS011;62201;49.966;8.342;2023-03-04T11:13:12;25.77;;;6.57;;
61640;SDS011;62201;49.966;8.342;2023-03-04T11:16:02;21.27;;;6.23;;
61640;SDS011;62201;49.966;8.342;2023-03-04T11:18:54;16.07;;;6.10;;
61640;SDS011;62201;49.966;8.342;2023-03-04T11:21:30;17.98;;;6.18;;
61640;SDS011;62201;49.966;8.342;2023-03-04T11:24:18;24.23;;;6.40;;
61640;SDS011;62201;49.966;8.342;2023-03-04T11:29:42;19.27;;;6.77;;
61640;SDS011;62201;49.966;8.342;2023-03-04T11:35:03;21.57;;;7.47;;
61640;SDS011;62201;49.966;8.342;2023-03-04T11:38:21;23.97;;;7.23;;
61640;SDS011;62201;49.966;8.342;2023-03-04T11:40:58;25.43;;;7.13;;
61640;SDS011;62201;49.966;8.342;2023-03-04T11:49:05;24.57;;;8.67;;
61640;SDS011;62201;49.966;8.342;2023-03-04T12:03:24;16.77;;;6.70;;
61640;SDS011;62201;49.966;8.342;2023-03-04T12:11:33;16.40;;;5.90;;
61640;SDS011;62201;49.966;8.342;2023-03-04T12:14:20;17.77;;;6.43;;
61640;SDS011;62201;49.966;8.342;2023-03-04T12:17:12;17.73;;;6.47;;
61640;SDS011;62201;49.966;8.342;2023-03-04T12:25:48;17.50;;;5.97;;
61640;SDS011;62201;49.966;8.342;2023-03-04T12:28:23;18.40;;;5.40;;
61640;SDS011;62201;49.966;8.342;2023-03-04T12:31:16;19.17;;;7.00;;
61640;SDS011;62201;49.966;8.342;2023-03-04T12:37:03;16.73;;;5.30;;
61640;SDS011;62201;49.966;8.342;2023-03-04T12:40:11;17.52;;;6.35;;
61640;SDS011;62201;49.966;8.342;2023-03-04T12:45:48;18.37;;;5.53;;
61640;SDS011;62201;49.966;8.342;2023-03-04T12:48:35;15.50;;;5.23;;
61640;SDS011;62201;49.966;8.342;2023-03-04T12:51:41;16.97;;;5.00;;
61640;SDS011;62201;49.966;8.342;2023-03-04T12:54:15;13.50;;;5.93;;
61640;SDS011;62201;49.966;8.342;2023-03-04T12:57:08;12.73;;;4.87;;
61640;SDS011;62201;49.966;8.342;2023-03-04T12:59:39;19.93;;;5.80;;
61640;SDS011;62201;49.966;8.342;2023-03-04T13:10:27;14.37;;;4.40;;
61640;SDS011;62201;49.966;8.342;2023-03-04T13:12:59;11.97;;;4.20;;
61640;SDS011;62201;49.966;8.342;2023-03-04T13:15:35;17.63;;;4.63;;
61640;SDS011;62201;49.966;8.342;2023-03-04T13:21:07;10.80;;;4.67;;
61640;SDS011;62201;49.966;8.342;2023-03-04T13:23:44;13.03;;;4.90;;
61640;SDS011;62201;49.966;8.342;2023-03-04T13:26:15;14.83;;;4.60;;
61640;SDS011;62201;49.966;8.342;2023-03-04T13:28:45;10.90;;;3.87;;
61640;SDS011;62201;49.966;8.342;2023-03-04T13:31:17;17.33;;;4.10;;
61640;SDS011;62201;49.966;8.342;2023-03-04T13:33:46;9.67;;;3.97;;
61640;SDS011;62201;49.966;8.342;2023-03-04T13:39:36;15.80;;;7.23;;
61640;SDS011;62201;49.966;8.342;2023-03-04T13:41:46;27.40;;;19.87;;
61640;SDS011;62201;49.966;8.342;2023-03-04T13:47:05;10.77;;;4.33;;
61640;SDS011;62201;49.966;8.342;2023-03-04T13:49:38;11.43;;;4.10;;
61640;SDS011;62201;49.966;8.342;2023-03-04T13:52:32;10.90;;;5.37;;
61640;SDS011;62201;49.966;8.342;2023-03-04T13:57:59;14.43;;;4.43;;
61640;SDS011;62201;49.966;8.342;2023-03-04T14:00:25;11.13;;;4.67;;
61640;SDS011;62201;49.966;8.342;2023-03-04T14:02:51;10.03;;;4.10;;
61640;SDS011;62201;49.966;8.342;2023-03-04T14:05:17;12.10;;;5.10;;
61640;SDS011;62201;49.966;8.342;2023-03-04T14:07:42;13.70;;;4.63;;
61640;SDS011;62201;49.966;8.342;2023-03-04T14:10:23;13.60;;;4.90;;
61640;SDS011;62201;49.966;8.342;2023-03-04T14:12:55;13.03;;;5.10;;
61640;SDS011;62201;49.966;8.342;2023-03-04T14:15:31;12.53;;;4.93;;
61640;SDS011;62201;49.966;8.342;2023-03-04T14:18:05;12.70;;;5.27;;
61640;SDS011;62201;49.966;8.342;2023-03-04T14:20:31;14.83;;;6.20;;
61640;SDS011;62201;49.966;8.342;2023-03-04T14:23:02;14.20;;;5.83;;
61640;SDS011;62201;49.966;8.342;2023-03-04T14:25:35;11.30;;;5.90;;
61640;SDS011;62201;49.966;8.342;2023-03-04T14:28:04;18.17;;;8.40;;
61640;SDS011;62201;49.966;8.342;2023-03-04T14:30:56;12.38;;;6.32;;
61640;SDS011;62201;49.966;8.342;2023-03-04T14:33:28;10.87;;;5.97;;
61640;SDS011;62201;49.966;8.342;2023-03-04T14:35:58;15.30;;;5.97;;
61640;SDS011;62201;49.966;8.342;2023-03-04T14:38:29;12.50;;;5.77;;
61640;SDS011;62201;49.966;8.342;2023-03-04T14:41:08;17.27;;;5.67;;
61640;SDS011;62201;49.966;8.342;2023-03-04T14:44:08;13.10;;;6.60;;
61640;SDS011;62201;49.966;8.342;2023-03-04T14:46:49;11.37;;;5.80;;
61640;SDS011;62201;49.966;8.342;2023-03-04T14:49:19;13.87;;;5.73;;
61640;SDS011;62201;49.966;8.342;2023-03-04T14:51:49;15.27;;;5.80;;
61640;SDS011;62201;49.966;8.342;2023-03-04T14:54:34;15.70;;;7.27;;
61640;SDS011;62201;49.966;8.342;2023-03-04T15:00:06;16.90;;;6.50;;
61640;SDS011;62201;49.966;8.342;2023-03-04T15:02:50;12.73;;;5.13;;
61640;SDS011;62201;49.966;8.342;2023-03-04T15:05:24;11.93;;;4.97;;
61640;SDS011;62201;49.966;8.342;2023-03-04T15:07:57;12.80;;;5.30;;
61640;SDS011;62201;49.966;8.342;2023-03-04T15:10:30;13.80;;;5.70;;
61640;SDS011;62201;49.966;8.342;2023-03-04T15:12:59;16.40;;;6.33;;
61640;SDS011;62201;49.966;8.342;2023-03-04T15:15:33;43.73;;;21.17;;
61640;SDS011;62201;49.966;8.342;2023-03-04T15:23:32;14.10;;;7.83;;
61640;SDS011;62201;49.966;8.342;2023-03-04T15:26:04;15.67;;;7.70;;
61640;SDS011;62201;49.966;8.342;2023-03-04T15:28:39;14.63;;;7.50;;
61640;SDS011;62201;49.966;8.342;2023-03-04T15:31:21;12.17;;;6.27;;
61640;SDS011;62201;49.966;8.342;2023-03-04T15:34:00;15.03;;;6.63;;
61640;SDS011;62201;49.966;8.342;2023-03-04T15:36:26;15.83;;;7.47;;
61640;SDS011;62201;49.966;8.342;2023-03-04T15:38:54;18.27;;;7.53;;
61640;SDS011;62201;49.966;8.342;2023-03-04T15:41:41;17.60;;;6.57;;
61640;SDS011;62201;49.966;8.342;2023-03-04T15:44:06;14.70;;;6.53;;
61640;SDS011;62201;49.966;8.342;2023-03-04T15:46:39;18.47;;;7.40;;
61640;SDS011;62201;49.966;8.342;2023-03-04T15:49:10;22.93;;;7.93;;
61640;SDS011;62201;49.966;8.342;2023-03-04T15:51:46;15.10;;;7.27;;
61640;SDS011;62201;49.966;8.342;2023-03-04T15:54:17;15.53;;;7.23;;
61640;SDS011;62201;49.966;8.342;2023-03-04T15:56:48;16.37;;;7.60;;
61640;SDS011;62201;49.966;8.342;2023-03-04T15:59:14;13.70;;;6.73;;
61640;SDS011;62201;49.966;8.342;2023-03-04T16:01:41;12.83;;;6.33;;